Terminal Aerodrome Forecast
Issued by NWS

Home | Current Version | Previous Version | Text Only | Print | Product List | Glossary On
Versions: 1 2 3 4 5 6 7 8 9 10 11 12 13 14 15 16 17 18 19 20
000
FTUS45 KFGZ 272300
TAFPRC
TAF
KPRC 272320Z 2800/2824 VRB05KT P6SM BKN080 BKN110
      TEMPO 2800/2804 VRB15G25KT 5SM -TSRA BKN070CB
     FM281200 13005KT P6SM BKN200
     FM282000 21008KT P6SM BKN080 BKN120
      TEMPO 2820/2824 5SM -TSRA BKN070CB=

USA.gov is the U.S. government's official web portal to all federal, state and local government web resources and services.